Карточка аэропорта USHH

Внимание!
Информация на этой странице в стадии наполнения.
Если вы не увидели какой-то информации, или заметили неточность - пожалуйста сообщите нам!
Спасибо!
Команда RU-STAFF
Название аэропортаХанты-Мансийск
Название аэропорта (англ.)Khanty-Mansiysk
Превышение141 ft. (43 m.)
Координаты61°1.7039999999999', 69°5.1599999999999'
Высота перехода800m
Эшелон переходаFL050
Коды ответчика5150-5177
Зона ОрВДТюмень РПИ (USTV)
Данные METARUSHH 290430Z 09001MPS 4300 HZ FEW002 M24/M27 Q1042 R06/490242 TEMPO 1000 FU BKN001
Проноз погоды (TAF)USHH 290151Z 2903/3003 16003MPS 2100 IC SCT003 BKN010 TEMPO 2903/2909 VRB01MPS 0800 FZFG BKN001 OVC010 FM290900 16003G08MPS 6000 FEW004 BKN016 TEMPO 2909/3003 1200 SN SCT002 BKN010
NOTAMshow/hide NOTAM
AWOS   TABLE

Информация о ВПП

ВПП Длина ВПП (м.) Покрытие Курс ВПП Частота ILS
062800Асфальтобетон58111.9
242800Асфальтобетон238110.1

Диспетчерские позиции

Позывной Наименование органа УВД Частота
USHH_R_APPХантым-Круг120.4
USHH_TWRХантым-Вышка118.1



Спутниковое изображение